sensor_id;sensor_type;location;lat;lon;timestamp;P1;durP1;ratioP1;P2;durP2;ratioP2
44606;SDS011;30315;46.072;14.474;2023-05-10T00:00:27;4.57;;;4.20;;
44606;SDS011;30315;46.072;14.474;2023-05-10T00:02:54;4.63;;;4.22;;
44606;SDS011;30315;46.072;14.474;2023-05-10T00:05:21;5.00;;;4.60;;
44606;SDS011;30315;46.072;14.474;2023-05-10T00:07:49;5.13;;;4.63;;
44606;SDS011;30315;46.072;14.474;2023-05-10T00:10:17;4.43;;;4.03;;
44606;SDS011;30315;46.072;14.474;2023-05-10T00:12:44;4.80;;;4.50;;
44606;SDS011;30315;46.072;14.474;2023-05-10T00:15:11;5.45;;;4.60;;
44606;SDS011;30315;46.072;14.474;2023-05-10T00:17:38;4.75;;;4.35;;
44606;SDS011;30315;46.072;14.474;2023-05-10T00:20:05;4.88;;;4.47;;
44606;SDS011;30315;46.072;14.474;2023-05-10T00:22:33;4.45;;;4.15;;
44606;SDS011;30315;46.072;14.474;2023-05-10T00:25:00;5.63;;;4.32;;
44606;SDS011;30315;46.072;14.474;2023-05-10T00:27:27;4.38;;;3.97;;
44606;SDS011;30315;46.072;14.474;2023-05-10T00:29:54;4.40;;;4.00;;
44606;SDS011;30315;46.072;14.474;2023-05-10T00:32:21;6.30;;;4.68;;
44606;SDS011;30315;46.072;14.474;2023-05-10T00:34:48;4.40;;;4.10;;
44606;SDS011;30315;46.072;14.474;2023-05-10T00:37:14;4.82;;;4.43;;
44606;SDS011;30315;46.072;14.474;2023-05-10T00:39:41;4.35;;;4.05;;
44606;SDS011;30315;46.072;14.474;2023-05-10T00:42:10;4.38;;;3.97;;
44606;SDS011;30315;46.072;14.474;2023-05-10T00:44:37;4.18;;;3.80;;
44606;SDS011;30315;46.072;14.474;2023-05-10T00:47:04;4.45;;;4.15;;
44606;SDS011;30315;46.072;14.474;2023-05-10T00:49:32;4.82;;;4.43;;
44606;SDS011;30315;46.072;14.474;2023-05-10T00:51:59;4.68;;;4.28;;
44606;SDS011;30315;46.072;14.474;2023-05-10T00:54:26;4.88;;;4.45;;
44606;SDS011;30315;46.072;14.474;2023-05-10T00:56:53;5.30;;;4.90;;
44606;SDS011;30315;46.072;14.474;2023-05-10T00:59:20;6.15;;;4.65;;
44606;SDS011;30315;46.072;14.474;2023-05-10T01:01:48;5.95;;;4.82;;
44606;SDS011;30315;46.072;14.474;2023-05-10T01:04:15;5.03;;;4.60;;
44606;SDS011;30315;46.072;14.474;2023-05-10T01:06:42;4.72;;;4.43;;
44606;SDS011;30315;46.072;14.474;2023-05-10T01:09:10;5.35;;;4.80;;
44606;SDS011;30315;46.072;14.474;2023-05-10T01:11:38;5.13;;;4.72;;
44606;SDS011;30315;46.072;14.474;2023-05-10T01:14:06;5.30;;;4.47;;
44606;SDS011;30315;46.072;14.474;2023-05-10T01:16:37;5.00;;;4.50;;
44606;SDS011;30315;46.072;14.474;2023-05-10T01:19:11;4.88;;;4.47;;
44606;SDS011;30315;46.072;14.474;2023-05-10T01:21:53;4.38;;;4.07;;
44606;SDS011;30315;46.072;14.474;2023-05-10T01:33:21;7.70;;;4.68;;
44606;SDS011;30315;46.072;14.474;2023-05-10T01:36:25;5.03;;;4.63;;
44606;SDS011;30315;46.072;14.474;2023-05-10T01:41:54;5.78;;;4.90;;
44606;SDS011;30315;46.072;14.474;2023-05-10T01:47:14;5.43;;;5.03;;
44606;SDS011;30315;46.072;14.474;2023-05-10T01:49:49;4.57;;;4.25;;
44606;SDS011;30315;46.072;14.474;2023-05-10T01:52:19;5.80;;;5.22;;
44606;SDS011;30315;46.072;14.474;2023-05-10T01:54:58;5.13;;;4.72;;
44606;SDS011;30315;46.072;14.474;2023-05-10T01:57:32;4.97;;;4.50;;
44606;SDS011;30315;46.072;14.474;2023-05-10T02:00:03;5.38;;;4.88;;
44606;SDS011;30315;46.072;14.474;2023-05-10T02:02:40;4.80;;;4.43;;
44606;SDS011;30315;46.072;14.474;2023-05-10T02:05:10;4.90;;;4.45;;
44606;SDS011;30315;46.072;14.474;2023-05-10T02:07:39;7.32;;;5.05;;
44606;SDS011;30315;46.072;14.474;2023-05-10T02:10:09;4.75;;;4.35;;
44606;SDS011;30315;46.072;14.474;2023-05-10T02:12:39;4.88;;;4.50;;
44606;SDS011;30315;46.072;14.474;2023-05-10T02:15:10;5.18;;;4.78;;
44606;SDS011;30315;46.072;14.474;2023-05-10T02:17:39;5.10;;;4.75;;
44606;SDS011;30315;46.072;14.474;2023-05-10T02:22:57;4.97;;;4.55;;
44606;SDS011;30315;46.072;14.474;2023-05-10T02:25:24;5.28;;;4.78;;
44606;SDS011;30315;46.072;14.474;2023-05-10T02:27:53;4.93;;;4.55;;
44606;SDS011;30315;46.072;14.474;2023-05-10T02:30:23;5.20;;;4.80;;
44606;SDS011;30315;46.072;14.474;2023-05-10T02:32:51;5.47;;;4.97;;
44606;SDS011;30315;46.072;14.474;2023-05-10T02:35:19;5.22;;;4.82;;
44606;SDS011;30315;46.072;14.474;2023-05-10T02:37:46;6.15;;;4.65;;
44606;SDS011;30315;46.072;14.474;2023-05-10T02:40:15;5.45;;;4.65;;
44606;SDS011;30315;46.072;14.474;2023-05-10T02:42:44;5.20;;;4.75;;
44606;SDS011;30315;46.072;14.474;2023-05-10T02:45:16;4.80;;;4.50;;
44606;SDS011;30315;46.072;14.474;2023-05-10T02:47:46;5.10;;;4.70;;
44606;SDS011;30315;46.072;14.474;2023-05-10T02:50:14;6.65;;;5.43;;
44606;SDS011;30315;46.072;14.474;2023-05-10T02:52:43;5.22;;;4.82;;
44606;SDS011;30315;46.072;14.474;2023-05-10T02:55:14;5.38;;;4.93;;
44606;SDS011;30315;46.072;14.474;2023-05-10T02:57:47;5.33;;;4.93;;
44606;SDS011;30315;46.072;14.474;2023-05-10T03:00:18;5.35;;;4.95;;
44606;SDS011;30315;46.072;14.474;2023-05-10T03:02:45;4.50;;;4.20;;
44606;SDS011;30315;46.072;14.474;2023-05-10T03:05:12;9.52;;;4.65;;
44606;SDS011;30315;46.072;14.474;2023-05-10T03:07:39;4.78;;;4.25;;
44606;SDS011;30315;46.072;14.474;2023-05-10T03:10:07;4.60;;;4.20;;
44606;SDS011;30315;46.072;14.474;2023-05-10T03:15:05;5.13;;;4.63;;
44606;SDS011;30315;46.072;14.474;2023-05-10T03:17:49;5.80;;;4.18;;
44606;SDS011;30315;46.072;14.474;2023-05-10T03:20:34;4.68;;;4.38;;
44606;SDS011;30315;46.072;14.474;2023-05-10T03:25:45;7.80;;;4.60;;
44606;SDS011;30315;46.072;14.474;2023-05-10T03:28:15;5.28;;;4.88;;
44606;SDS011;30315;46.072;14.474;2023-05-10T03:30:44;5.43;;;4.95;;
44606;SDS011;30315;46.072;14.474;2023-05-10T03:33:12;5.20;;;4.72;;
44606;SDS011;30315;46.072;14.474;2023-05-10T03:35:43;6.05;;;5.28;;
44606;SDS011;30315;46.072;14.474;2023-05-10T03:38:13;5.90;;;5.40;;
44606;SDS011;30315;46.072;14.474;2023-05-10T03:40:39;5.25;;;4.80;;
44606;SDS011;30315;46.072;14.474;2023-05-10T03:43:07;5.75;;;5.10;;
44606;SDS011;30315;46.072;14.474;2023-05-10T03:45:34;5.22;;;4.55;;
44606;SDS011;30315;46.072;14.474;2023-05-10T03:48:01;5.00;;;4.70;;
44606;SDS011;30315;46.072;14.474;2023-05-10T03:50:29;5.00;;;4.68;;
44606;SDS011;30315;46.072;14.474;2023-05-10T03:52:56;5.13;;;4.65;;
44606;SDS011;30315;46.072;14.474;2023-05-10T03:55:23;5.63;;;4.82;;
44606;SDS011;30315;46.072;14.474;2023-05-10T03:57:51;5.75;;;5.25;;
44606;SDS011;30315;46.072;14.474;2023-05-10T04:00:21;5.90;;;4.95;;
44606;SDS011;30315;46.072;14.474;2023-05-10T04:02:51;5.45;;;5.05;;
44606;SDS011;30315;46.072;14.474;2023-05-10T04:05:19;5.43;;;4.93;;
44606;SDS011;30315;46.072;14.474;2023-05-10T04:07:46;5.30;;;4.90;;
44606;SDS011;30315;46.072;14.474;2023-05-10T04:10:15;4.78;;;4.38;;
44606;SDS011;30315;46.072;14.474;2023-05-10T04:12:43;5.90;;;5.22;;
44606;SDS011;30315;46.072;14.474;2023-05-10T04:15:10;9.38;;;5.20;;
44606;SDS011;30315;46.072;14.474;2023-05-10T04:17:37;5.20;;;4.90;;
44606;SDS011;30315;46.072;14.474;2023-05-10T04:20:04;5.68;;;5.28;;
44606;SDS011;30315;46.072;14.474;2023-05-10T04:22:32;5.43;;;5.03;;
44606;SDS011;30315;46.072;14.474;2023-05-10T04:24:59;5.22;;;4.70;;
44606;SDS011;30315;46.072;14.474;2023-05-10T04:27:25;5.65;;;5.15;;
44606;SDS011;30315;46.072;14.474;2023-05-10T04:29:53;4.82;;;4.43;;
44606;SDS011;30315;46.072;14.474;2023-05-10T04:32:20;4.93;;;4.63;;
44606;SDS011;30315;46.072;14.474;2023-05-10T04:34:47;6.15;;;5.63;;
44606;SDS011;30315;46.072;14.474;2023-05-10T04:37:14;8.57;;;5.50;;
44606;SDS011;30315;46.072;14.474;2023-05-10T04:39:41;5.88;;;4.90;;
44606;SDS011;30315;46.072;14.474;2023-05-10T04:42:08;6.43;;;5.20;;
44606;SDS011;30315;46.072;14.474;2023-05-10T04:44:35;5.82;;;5.32;;
44606;SDS011;30315;46.072;14.474;2023-05-10T04:47:02;6.15;;;5.65;;
44606;SDS011;30315;46.072;14.474;2023-05-10T04:49:29;6.18;;;5.60;;
44606;SDS011;30315;46.072;14.474;2023-05-10T04:51:56;6.30;;;5.70;;
44606;SDS011;30315;46.072;14.474;2023-05-10T04:54:23;6.78;;;5.53;;
44606;SDS011;30315;46.072;14.474;2023-05-10T04:56:50;6.07;;;5.57;;
44606;SDS011;30315;46.072;14.474;2023-05-10T04:59:17;6.13;;;5.63;;
44606;SDS011;30315;46.072;14.474;2023-05-10T05:01:44;6.22;;;5.80;;
44606;SDS011;30315;46.072;14.474;2023-05-10T05:04:11;5.75;;;5.13;;
44606;SDS011;30315;46.072;14.474;2023-05-10T05:06:38;7.50;;;5.13;;
44606;SDS011;30315;46.072;14.474;2023-05-10T05:09:05;6.28;;;5.78;;
44606;SDS011;30315;46.072;14.474;2023-05-10T05:11:32;6.47;;;5.82;;
44606;SDS011;30315;46.072;14.474;2023-05-10T05:13:59;10.00;;;5.22;;
44606;SDS011;30315;46.072;14.474;2023-05-10T05:16:26;6.05;;;5.45;;
44606;SDS011;30315;46.072;14.474;2023-05-10T05:18:53;6.13;;;5.68;;
44606;SDS011;30315;46.072;14.474;2023-05-10T05:21:20;6.50;;;6.00;;
44606;SDS011;30315;46.072;14.474;2023-05-10T05:23:48;8.77;;;5.90;;
44606;SDS011;30315;46.072;14.474;2023-05-10T05:26:15;6.28;;;5.72;;
44606;SDS011;30315;46.072;14.474;2023-05-10T05:28:42;7.00;;;6.28;;
44606;SDS011;30315;46.072;14.474;2023-05-10T05:31:09;7.63;;;6.22;;
44606;SDS011;30315;46.072;14.474;2023-05-10T05:33:37;6.82;;;5.88;;
44606;SDS011;30315;46.072;14.474;2023-05-10T05:36:04;6.05;;;5.47;;
44606;SDS011;30315;46.072;14.474;2023-05-10T05:38:32;7.10;;;5.65;;
44606;SDS011;30315;46.072;14.474;2023-05-10T05:40:59;7.60;;;6.65;;
44606;SDS011;30315;46.072;14.474;2023-05-10T05:43:27;6.38;;;5.63;;
44606;SDS011;30315;46.072;14.474;2023-05-10T05:45:54;6.80;;;5.82;;
44606;SDS011;30315;46.072;14.474;2023-05-10T05:48:21;8.95;;;5.93;;
44606;SDS011;30315;46.072;14.474;2023-05-10T05:50:48;6.90;;;5.35;;
44606;SDS011;30315;46.072;14.474;2023-05-10T05:53:16;10.02;;;6.35;;
44606;SDS011;30315;46.072;14.474;2023-05-10T05:55:51;8.23;;;5.97;;
44606;SDS011;30315;46.072;14.474;2023-05-10T05:58:19;7.35;;;6.00;;
44606;SDS011;30315;46.072;14.474;2023-05-10T06:00:47;8.18;;;5.68;;
44606;SDS011;30315;46.072;14.474;2023-05-10T06:03:14;6.47;;;5.88;;
44606;SDS011;30315;46.072;14.474;2023-05-10T06:05:41;6.15;;;5.60;;
44606;SDS011;30315;46.072;14.474;2023-05-10T06:08:08;6.55;;;5.45;;
44606;SDS011;30315;46.072;14.474;2023-05-10T06:10:36;6.35;;;5.72;;
44606;SDS011;30315;46.072;14.474;2023-05-10T06:13:03;6.20;;;5.60;;
44606;SDS011;30315;46.072;14.474;2023-05-10T06:15:30;6.93;;;6.05;;
44606;SDS011;30315;46.072;14.474;2023-05-10T06:17:58;6.68;;;5.80;;
44606;SDS011;30315;46.072;14.474;2023-05-10T06:20:26;5.80;;;5.03;;
44606;SDS011;30315;46.072;14.474;2023-05-10T06:22:53;9.20;;;6.15;;
44606;SDS011;30315;46.072;14.474;2023-05-10T06:25:20;6.30;;;5.80;;
44606;SDS011;30315;46.072;14.474;2023-05-10T06:27:47;6.65;;;6.05;;
44606;SDS011;30315;46.072;14.474;2023-05-10T06:30:19;8.68;;;6.53;;
44606;SDS011;30315;46.072;14.474;2023-05-10T06:32:46;6.78;;;6.18;;
44606;SDS011;30315;46.072;14.474;2023-05-10T06:35:13;6.55;;;5.78;;
44606;SDS011;30315;46.072;14.474;2023-05-10T06:37:40;8.77;;;6.15;;
44606;SDS011;30315;46.072;14.474;2023-05-10T06:40:07;6.30;;;5.70;;
44606;SDS011;30315;46.072;14.474;2023-05-10T06:42:35;7.25;;;5.55;;
44606;SDS011;30315;46.072;14.474;2023-05-10T06:45:03;6.20;;;5.57;;
44606;SDS011;30315;46.072;14.474;2023-05-10T06:47:30;5.70;;;5.20;;
44606;SDS011;30315;46.072;14.474;2023-05-10T06:49:58;6.20;;;5.60;;
44606;SDS011;30315;46.072;14.474;2023-05-10T06:52:25;6.43;;;5.82;;
44606;SDS011;30315;46.072;14.474;2023-05-10T06:54:51;5.35;;;4.93;;
44606;SDS011;30315;46.072;14.474;2023-05-10T06:57:19;8.20;;;5.35;;
44606;SDS011;30315;46.072;14.474;2023-05-10T07:00:00;5.57;;;5.05;;
44606;SDS011;30315;46.072;14.474;2023-05-10T07:02:30;7.55;;;5.53;;
44606;SDS011;30315;46.072;14.474;2023-05-10T07:04:57;8.43;;;5.45;;
44606;SDS011;30315;46.072;14.474;2023-05-10T07:07:27;8.38;;;5.30;;
44606;SDS011;30315;46.072;14.474;2023-05-10T07:09:55;5.63;;;5.10;;
44606;SDS011;30315;46.072;14.474;2023-05-10T07:12:24;5.43;;;5.00;;
44606;SDS011;30315;46.072;14.474;2023-05-10T07:14:51;6.00;;;5.40;;
44606;SDS011;30315;46.072;14.474;2023-05-10T07:17:18;11.18;;;5.50;;
44606;SDS011;30315;46.072;14.474;2023-05-10T07:19:45;6.25;;;5.25;;
44606;SDS011;30315;46.072;14.474;2023-05-10T07:22:12;5.95;;;5.25;;
44606;SDS011;30315;46.072;14.474;2023-05-10T07:24:39;6.20;;;4.60;;
44606;SDS011;30315;46.072;14.474;2023-05-10T07:27:07;4.75;;;4.45;;
44606;SDS011;30315;46.072;14.474;2023-05-10T07:29:34;6.30;;;5.10;;
44606;SDS011;30315;46.072;14.474;2023-05-10T07:32:02;5.95;;;5.30;;
44606;SDS011;30315;46.072;14.474;2023-05-10T07:34:29;5.60;;;4.78;;
44606;SDS011;30315;46.072;14.474;2023-05-10T07:36:59;4.88;;;4.47;;
44606;SDS011;30315;46.072;14.474;2023-05-10T07:39:27;4.80;;;4.45;;
44606;SDS011;30315;46.072;14.474;2023-05-10T07:41:54;5.53;;;4.80;;
44606;SDS011;30315;46.072;14.474;2023-05-10T07:44:22;5.43;;;4.97;;
44606;SDS011;30315;46.072;14.474;2023-05-10T07:46:49;4.95;;;4.63;;
44606;SDS011;30315;46.072;14.474;2023-05-10T07:49:16;7.15;;;5.13;;
44606;SDS011;30315;46.072;14.474;2023-05-10T07:51:43;4.88;;;4.47;;
44606;SDS011;30315;46.072;14.474;2023-05-10T07:54:10;5.00;;;4.60;;
44606;SDS011;30315;46.072;14.474;2023-05-10T07:56:37;6.55;;;5.15;;
44606;SDS011;30315;46.072;14.474;2023-05-10T07:59:04;5.57;;;5.05;;
44606;SDS011;30315;46.072;14.474;2023-05-10T08:01:35;6.55;;;5.22;;
44606;SDS011;30315;46.072;14.474;2023-05-10T08:04:02;7.07;;;4.78;;
44606;SDS011;30315;46.072;14.474;2023-05-10T08:06:29;5.82;;;5.32;;
44606;SDS011;30315;46.072;14.474;2023-05-10T08:08:56;5.70;;;4.95;;
44606;SDS011;30315;46.072;14.474;2023-05-10T08:11:24;8.07;;;4.95;;
44606;SDS011;30315;46.072;14.474;2023-05-10T08:13:51;5.90;;;5.40;;
44606;SDS011;30315;46.072;14.474;2023-05-10T08:16:18;4.97;;;4.57;;
44606;SDS011;30315;46.072;14.474;2023-05-10T08:18:46;6.18;;;4.82;;
44606;SDS011;30315;46.072;14.474;2023-05-10T08:21:13;5.43;;;4.85;;
44606;SDS011;30315;46.072;14.474;2023-05-10T08:23:41;5.40;;;4.97;;
44606;SDS011;30315;46.072;14.474;2023-05-10T08:26:10;6.47;;;4.93;;
44606;SDS011;30315;46.072;14.474;2023-05-10T08:28:37;5.03;;;4.53;;
44606;SDS011;30315;46.072;14.474;2023-05-10T08:31:05;4.70;;;4.40;;
44606;SDS011;30315;46.072;14.474;2023-05-10T08:33:32;5.55;;;5.05;;
44606;SDS011;30315;46.072;14.474;2023-05-10T08:35:59;5.05;;;4.65;;
44606;SDS011;30315;46.072;14.474;2023-05-10T08:38:26;5.28;;;4.78;;
44606;SDS011;30315;46.072;14.474;2023-05-10T08:40:53;5.53;;;4.55;;
44606;SDS011;30315;46.072;14.474;2023-05-10T08:43:26;5.30;;;4.90;;
44606;SDS011;30315;46.072;14.474;2023-05-10T08:45:58;4.63;;;4.32;;
44606;SDS011;30315;46.072;14.474;2023-05-10T08:48:29;5.43;;;4.82;;
44606;SDS011;30315;46.072;14.474;2023-05-10T08:50:57;5.00;;;4.57;;
44606;SDS011;30315;46.072;14.474;2023-05-10T08:53:26;5.20;;;4.70;;
44606;SDS011;30315;46.072;14.474;2023-05-10T08:55:55;5.13;;;4.73;;
44606;SDS011;30315;46.072;14.474;2023-05-10T08:58:23;5.63;;;5.00;;
44606;SDS011;30315;46.072;14.474;2023-05-10T09:00:51;5.03;;;4.57;;
44606;SDS011;30315;46.072;14.474;2023-05-10T09:03:19;6.10;;;5.13;;
44606;SDS011;30315;46.072;14.474;2023-05-10T09:05:50;5.53;;;4.90;;
44606;SDS011;30315;46.072;14.474;2023-05-10T09:08:18;5.35;;;4.95;;
44606;SDS011;30315;46.072;14.474;2023-05-10T09:10:46;5.55;;;4.93;;
44606;SDS011;30315;46.072;14.474;2023-05-10T09:13:15;4.90;;;4.60;;
44606;SDS011;30315;46.072;14.474;2023-05-10T09:15:45;6.65;;;4.63;;
44606;SDS011;30315;46.072;14.474;2023-05-10T09:18:13;4.93;;;4.53;;
44606;SDS011;30315;46.072;14.474;2023-05-10T09:20:41;6.65;;;5.10;;
44606;SDS011;30315;46.072;14.474;2023-05-10T09:23:08;5.78;;;5.20;;
44606;SDS011;30315;46.072;14.474;2023-05-10T09:25:36;8.55;;;6.25;;
44606;SDS011;30315;46.072;14.474;2023-05-10T09:28:08;6.28;;;5.63;;
44606;SDS011;30315;46.072;14.474;2023-05-10T09:30:36;5.75;;;5.30;;
44606;SDS011;30315;46.072;14.474;2023-05-10T09:33:04;7.07;;;5.30;;
44606;SDS011;30315;46.072;14.474;2023-05-10T09:35:35;5.30;;;4.82;;
44606;SDS011;30315;46.072;14.474;2023-05-10T09:38:06;6.88;;;4.82;;
44606;SDS011;30315;46.072;14.474;2023-05-10T09:40:33;7.63;;;5.47;;
44606;SDS011;30315;46.072;14.474;2023-05-10T09:43:02;5.70;;;5.20;;
44606;SDS011;30315;46.072;14.474;2023-05-10T09:45:37;5.45;;;5.05;;
44606;SDS011;30315;46.072;14.474;2023-05-10T09:48:05;9.68;;;4.75;;
44606;SDS011;30315;46.072;14.474;2023-05-10T09:50:33;5.20;;;4.80;;
44606;SDS011;30315;46.072;14.474;2023-05-10T09:53:01;4.72;;;4.30;;
44606;SDS011;30315;46.072;14.474;2023-05-10T09:58:02;6.07;;;5.47;;
44606;SDS011;30315;46.072;14.474;2023-05-10T10:00:34;8.45;;;5.22;;
44606;SDS011;30315;46.072;14.474;2023-05-10T10:03:15;8.98;;;5.55;;
44606;SDS011;30315;46.072;14.474;2023-05-10T10:05:44;6.60;;;5.97;;
44606;SDS011;30315;46.072;14.474;2023-05-10T10:08:12;7.78;;;6.90;;
44606;SDS011;30315;46.072;14.474;2023-05-10T10:10:40;9.48;;;7.28;;
44606;SDS011;30315;46.072;14.474;2023-05-10T10:13:08;8.63;;;7.45;;
44606;SDS011;30315;46.072;14.474;2023-05-10T10:15:34;8.02;;;7.43;;
44606;SDS011;30315;46.072;14.474;2023-05-10T10:18:02;9.00;;;8.23;;
44606;SDS011;30315;46.072;14.474;2023-05-10T10:20:33;8.23;;;7.35;;
44606;SDS011;30315;46.072;14.474;2023-05-10T10:22:59;7.82;;;7.22;;
44606;SDS011;30315;46.072;14.474;2023-05-10T10:25:26;10.20;;;8.93;;
44606;SDS011;30315;46.072;14.474;2023-05-10T10:35:54;11.52;;;8.55;;
44606;SDS011;30315;46.072;14.474;2023-05-10T10:38:25;8.68;;;7.88;;
44606;SDS011;30315;46.072;14.474;2023-05-10T10:41:02;9.05;;;8.13;;
44606;SDS011;30315;46.072;14.474;2023-05-10T10:43:38;8.77;;;7.97;;
44606;SDS011;30315;46.072;14.474;2023-05-10T10:46:13;8.45;;;7.65;;
44606;SDS011;30315;46.072;14.474;2023-05-10T10:48:47;7.97;;;7.38;;
44606;SDS011;30315;46.072;14.474;2023-05-10T10:51:16;8.82;;;8.05;;
44606;SDS011;30315;46.072;14.474;2023-05-10T10:53:43;9.55;;;8.60;;
44606;SDS011;30315;46.072;14.474;2023-05-10T10:56:12;9.88;;;8.02;;
44606;SDS011;30315;46.072;14.474;2023-05-10T10:58:42;8.60;;;7.90;;
44606;SDS011;30315;46.072;14.474;2023-05-10T11:01:20;9.02;;;8.13;;
44606;SDS011;30315;46.072;14.474;2023-05-10T11:06:35;7.82;;;7.22;;
44606;SDS011;30315;46.072;14.474;2023-05-10T11:09:09;7.28;;;6.57;;
44606;SDS011;30315;46.072;14.474;2023-05-10T11:11:53;8.05;;;7.47;;
44606;SDS011;30315;46.072;14.474;2023-05-10T11:14:24;7.72;;;7.03;;
44606;SDS011;30315;46.072;14.474;2023-05-10T11:16:52;8.10;;;7.30;;
44606;SDS011;30315;46.072;14.474;2023-05-10T11:19:19;9.23;;;7.80;;
44606;SDS011;30315;46.072;14.474;2023-05-10T11:21:50;7.63;;;7.10;;
44606;SDS011;30315;46.072;14.474;2023-05-10T11:24:38;10.38;;;7.70;;
44606;SDS011;30315;46.072;14.474;2023-05-10T11:27:06;8.77;;;7.50;;
44606;SDS011;30315;46.072;14.474;2023-05-10T11:29:34;9.88;;;7.72;;
44606;SDS011;30315;46.072;14.474;2023-05-10T11:32:03;8.23;;;7.43;;
44606;SDS011;30315;46.072;14.474;2023-05-10T11:34:35;8.02;;;7.25;;
44606;SDS011;30315;46.072;14.474;2023-05-10T11:37:02;8.68;;;7.88;;
44606;SDS011;30315;46.072;14.474;2023-05-10T11:39:30;9.43;;;8.52;;
44606;SDS011;30315;46.072;14.474;2023-05-10T11:41:58;7.95;;;7.35;;
44606;SDS011;30315;46.072;14.474;2023-05-10T11:44:30;8.35;;;7.63;;
44606;SDS011;30315;46.072;14.474;2023-05-10T11:47:00;8.95;;;7.97;;
44606;SDS011;30315;46.072;14.474;2023-05-10T11:49:30;8.48;;;7.78;;
44606;SDS011;30315;46.072;14.474;2023-05-10T11:52:06;9.35;;;8.45;;
44606;SDS011;30315;46.072;14.474;2023-05-10T11:54:42;8.57;;;7.72;;
44606;SDS011;30315;46.072;14.474;2023-05-10T11:57:26;8.35;;;7.65;;
44606;SDS011;30315;46.072;14.474;2023-05-10T11:59:58;8.25;;;7.47;;
44606;SDS011;30315;46.072;14.474;2023-05-10T12:02:35;8.25;;;7.55;;
44606;SDS011;30315;46.072;14.474;2023-05-10T12:05:10;8.05;;;7.35;;
44606;SDS011;30315;46.072;14.474;2023-05-10T12:07:38;8.90;;;8.00;;
44606;SDS011;30315;46.072;14.474;2023-05-10T12:10:11;8.77;;;7.97;;
44606;SDS011;30315;46.072;14.474;2023-05-10T12:12:46;8.45;;;7.50;;
44606;SDS011;30315;46.072;14.474;2023-05-10T12:15:18;9.48;;;8.48;;
44606;SDS011;30315;46.072;14.474;2023-05-10T12:17:50;9.40;;;8.50;;
44606;SDS011;30315;46.072;14.474;2023-05-10T12:20:21;11.25;;;8.32;;
44606;SDS011;30315;46.072;14.474;2023-05-10T12:22:50;9.60;;;8.55;;
44606;SDS011;30315;46.072;14.474;2023-05-10T12:25:19;8.95;;;8.07;;
44606;SDS011;30315;46.072;14.474;2023-05-10T12:27:51;10.10;;;8.77;;
44606;SDS011;30315;46.072;14.474;2023-05-10T12:30:27;8.45;;;7.60;;
44606;SDS011;30315;46.072;14.474;2023-05-10T12:35:31;9.20;;;8.30;;
44606;SDS011;30315;46.072;14.474;2023-05-10T12:37:59;9.43;;;8.52;;
44606;SDS011;30315;46.072;14.474;2023-05-10T12:40:26;9.38;;;8.60;;
44606;SDS011;30315;46.072;14.474;2023-05-10T12:42:53;9.43;;;8.25;;
44606;SDS011;30315;46.072;14.474;2023-05-10T12:45:20;9.82;;;8.75;;
44606;SDS011;30315;46.072;14.474;2023-05-10T12:47:48;9.63;;;8.60;;
44606;SDS011;30315;46.072;14.474;2023-05-10T12:50:16;10.68;;;8.75;;
44606;SDS011;30315;46.072;14.474;2023-05-10T12:52:43;10.20;;;9.20;;
44606;SDS011;30315;46.072;14.474;2023-05-10T12:55:11;10.05;;;9.15;;
44606;SDS011;30315;46.072;14.474;2023-05-10T12:57:39;9.43;;;8.60;;
44606;SDS011;30315;46.072;14.474;2023-05-10T13:00:06;10.38;;;9.25;;
44606;SDS011;30315;46.072;14.474;2023-05-10T13:02:35;12.53;;;9.83;;
44606;SDS011;30315;46.072;14.474;2023-05-10T13:05:03;13.13;;;10.43;;
44606;SDS011;30315;46.072;14.474;2023-05-10T13:07:31;9.88;;;8.88;;
44606;SDS011;30315;46.072;14.474;2023-05-10T13:09:58;10.18;;;9.18;;
44606;SDS011;30315;46.072;14.474;2023-05-10T13:12:26;11.43;;;10.32;;
44606;SDS011;30315;46.072;14.474;2023-05-10T13:14:53;12.38;;;9.43;;
44606;SDS011;30315;46.072;14.474;2023-05-10T13:17:20;10.40;;;9.05;;
44606;SDS011;30315;46.072;14.474;2023-05-10T13:19:48;8.68;;;7.97;;
44606;SDS011;30315;46.072;14.474;2023-05-10T13:22:15;10.15;;;9.23;;
44606;SDS011;30315;46.072;14.474;2023-05-10T13:24:54;10.68;;;9.35;;
44606;SDS011;30315;46.072;14.474;2023-05-10T13:27:21;10.73;;;9.65;;
44606;SDS011;30315;46.072;14.474;2023-05-10T13:29:48;10.52;;;9.63;;
44606;SDS011;30315;46.072;14.474;2023-05-10T13:32:15;9.25;;;8.45;;
44606;SDS011;30315;46.072;14.474;2023-05-10T13:34:42;10.60;;;9.30;;
44606;SDS011;30315;46.072;14.474;2023-05-10T13:37:10;10.35;;;8.88;;
44606;SDS011;30315;46.072;14.474;2023-05-10T13:39:37;11.07;;;9.95;;
44606;SDS011;30315;46.072;14.474;2023-05-10T13:42:04;10.32;;;9.50;;
44606;SDS011;30315;46.072;14.474;2023-05-10T13:44:31;10.23;;;9.25;;
44606;SDS011;30315;46.072;14.474;2023-05-10T13:47:00;10.40;;;9.45;;
44606;SDS011;30315;46.072;14.474;2023-05-10T13:49:27;11.93;;;9.05;;
44606;SDS011;30315;46.072;14.474;2023-05-10T13:51:53;10.05;;;9.25;;
44606;SDS011;30315;46.072;14.474;2023-05-10T13:54:20;10.85;;;9.55;;
44606;SDS011;30315;46.072;14.474;2023-05-10T13:56:48;11.18;;;10.07;;
44606;SDS011;30315;46.072;14.474;2023-05-10T13:59:15;12.43;;;10.45;;
44606;SDS011;30315;46.072;14.474;2023-05-10T14:01:43;10.73;;;9.82;;
44606;SDS011;30315;46.072;14.474;2023-05-10T14:04:10;11.07;;;10.00;;
44606;SDS011;30315;46.072;14.474;2023-05-10T14:06:37;11.15;;;10.02;;
44606;SDS011;30315;46.072;14.474;2023-05-10T14:09:04;10.75;;;9.75;;
44606;SDS011;30315;46.072;14.474;2023-05-10T14:11:31;12.85;;;10.60;;
44606;SDS011;30315;46.072;14.474;2023-05-10T14:13:58;12.60;;;10.57;;
44606;SDS011;30315;46.072;14.474;2023-05-10T14:16:25;11.75;;;10.65;;
44606;SDS011;30315;46.072;14.474;2023-05-10T14:18:53;11.68;;;10.50;;
44606;SDS011;30315;46.072;14.474;2023-05-10T14:21:20;12.57;;;11.02;;
44606;SDS011;30315;46.072;14.474;2023-05-10T14:23:47;12.45;;;11.20;;
44606;SDS011;30315;46.072;14.474;2023-05-10T14:26:14;13.52;;;11.23;;
44606;SDS011;30315;46.072;14.474;2023-05-10T14:28:41;11.93;;;10.90;;
44606;SDS011;30315;46.072;14.474;2023-05-10T14:31:08;12.82;;;11.63;;
44606;SDS011;30315;46.072;14.474;2023-05-10T14:33:35;12.15;;;10.80;;
44606;SDS011;30315;46.072;14.474;2023-05-10T14:36:02;11.80;;;10.65;;
44606;SDS011;30315;46.072;14.474;2023-05-10T14:38:30;14.20;;;12.20;;
44606;SDS011;30315;46.072;14.474;2023-05-10T14:40:57;14.95;;;12.77;;
44606;SDS011;30315;46.072;14.474;2023-05-10T14:43:24;16.17;;;14.68;;
44606;SDS011;30315;46.072;14.474;2023-05-10T14:45:51;14.20;;;12.80;;
44606;SDS011;30315;46.072;14.474;2023-05-10T14:48:18;17.92;;;13.18;;
44606;SDS011;30315;46.072;14.474;2023-05-10T14:50:45;15.52;;;12.52;;
44606;SDS011;30315;46.072;14.474;2023-05-10T14:53:12;13.13;;;11.90;;
44606;SDS011;30315;46.072;14.474;2023-05-10T14:55:39;12.65;;;11.35;;
44606;SDS011;30315;46.072;14.474;2023-05-10T14:58:06;14.20;;;12.32;;
44606;SDS011;30315;46.072;14.474;2023-05-10T15:00:34;17.75;;;13.10;;
44606;SDS011;30315;46.072;14.474;2023-05-10T15:03:02;13.82;;;12.48;;
44606;SDS011;30315;46.072;14.474;2023-05-10T15:05:30;14.73;;;12.93;;
44606;SDS011;30315;46.072;14.474;2023-05-10T15:07:57;17.55;;;13.60;;
44606;SDS011;30315;46.072;14.474;2023-05-10T15:10:24;14.18;;;12.63;;
44606;SDS011;30315;46.072;14.474;2023-05-10T15:12:51;13.43;;;12.18;;
44606;SDS011;30315;46.072;14.474;2023-05-10T15:15:18;13.90;;;11.27;;
44606;SDS011;30315;46.072;14.474;2023-05-10T15:17:45;14.80;;;11.93;;